22NY weather

Troop A Headquarters Heliport
Batavia, New York, United States

Public forecast

Using degrees Fahrenheit for public forecast. Weather courtesy of forecast.io.

Closest aviation weather report (METAR) to Troop A Headquarters Heliport

Closest report is Greater Rochester International Airport, 23.1 nm (42.8 km) ENE. Retrieved 2020/08/04 22:54 UTC (27 minutes ago):

KROC 042254Z 32006KT 10SM FEW017 SCT026 BKN035TCU BKN180 23/19 A2980 RMK AO2 SLP090 TCU E-SE T02280194

Closest aviation forecast (TAF) to Troop A Headquarters Heliport

Closest forecast is Greater Rochester International Airport, 23.1 nm (42.8 km) ENE. Retrieved 2020/08/04 18:42 UTC (5 hours ago):

TAF KROC 041739Z 0418/0518 15008KT P6SM VCSH SCT015 OVC080 FM042000 03007KT P6SM VCSH BKN040 FM042300 03006KT P6SM BKN045 FM050700 26009KT P6SM BKN030 FM051000 26011G17KT P6SM SCT025